Time;durP1;ratioP1;P1;durP2;ratioP2;P2;SDS_P1;SDS_P2;PMS_P1;PMS_P2;Temp;Humidity;BMP_temperature;BMP_pressure;BME280_temperature;BME280_humidity;BME280_pressure;Samples;Min_cycle;Max_cycle;Signal;HPM_P1;HPM_P2
2022/04/05 00:01:40;;;;;;;10.20;6.90;;;;;;;3.46;100.00;98686.78;10587206;28;20667;-72
2022/04/05 00:06:44;;;;;;;11.33;7.40;;;;;;;3.40;100.00;98675.69;10587674;28;20945;-71
2022/04/05 00:11:48;;;;;;;11.53;7.27;;;;;;;3.26;100.00;98687.81;10587607;28;20309;-72
2022/04/05 00:16:52;;;;;;;11.47;7.33;;;;;;;3.14;100.00;98682.78;10587158;28;20227;-72
2022/04/05 00:21:55;;;;;;;11.07;7.70;;;;;;;3.10;100.00;98658.03;10586932;28;20222;-70
2022/04/05 00:27:00;;;;;;;10.10;7.10;;;;;;;3.18;100.00;98648.56;10551073;28;20577;-69
2022/04/05 00:32:04;;;;;;;10.30;6.43;;;;;;;3.23;100.00;98649.38;10546255;28;20720;-73
2022/04/05 00:37:07;;;;;;;9.60;6.37;;;;;;;3.25;100.00;98638.25;10544040;28;20341;-69
2022/04/05 00:42:12;;;;;;;9.33;6.23;;;;;;;3.30;100.00;98617.69;10543837;28;20215;-70
2022/04/05 00:47:18;;;;;;;9.93;6.97;;;;;;;3.32;100.00;98621.94;10545331;28;20219;-71
2022/04/05 00:52:22;;;;;;;7.70;5.60;;;;;;;3.40;100.00;98621.84;10543801;28;20231;-71
2022/04/05 00:57:29;;;;;;;9.03;6.13;;;;;;;3.35;100.00;98603.97;10543192;28;20227;-73
2022/04/05 01:02:37;;;;;;;9.87;5.97;;;;;;;3.26;100.00;98603.22;10548782;28;20222;-72
2022/04/05 01:07:43;;;;;;;8.80;6.33;;;;;;;3.14;100.00;98586.22;10543495;28;20314;-71
2022/04/05 01:12:49;;;;;;;8.17;5.77;;;;;;;2.97;100.00;98602.63;10542901;28;20717;-69
2022/04/05 01:17:55;;;;;;;9.33;5.57;;;;;;;3.01;100.00;98588.91;10542836;28;20310;-71
2022/04/05 01:22:58;;;;;;;8.10;6.23;;;;;;;3.08;100.00;98577.75;10543733;28;20223;-72
2022/04/05 01:28:03;;;;;;;8.53;5.37;;;;;;;3.12;100.00;98579.44;10584178;28;20214;-69
2022/04/05 01:33:07;;;;;;;8.60;5.53;;;;;;;3.13;100.00;98583.69;10584536;28;20218;-66
2022/04/05 01:38:11;;;;;;;9.23;5.90;;;;;;;3.04;100.00;98576.91;10583707;28;20253;-64
2022/04/05 01:43:16;;;;;;;7.97;5.53;;;;;;;3.02;100.00;98572.69;10584173;28;20203;-62
2022/04/05 01:48:19;;;;;;;8.30;5.83;;;;;;;3.02;100.00;98562.44;10583377;28;20198;-65
2022/04/05 01:53:22;;;;;;;9.67;6.13;;;;;;;3.14;100.00;98549.50;10583084;28;20237;-67
2022/04/05 01:58:28;;;;;;;8.57;6.17;;;;;;;3.09;100.00;98543.59;10586234;28;20223;-68
2022/04/05 02:03:31;;;;;;;8.63;5.83;;;;;;;3.13;100.00;98543.53;10586588;28;20206;-70
2022/04/05 02:08:35;;;;;;;10.27;6.83;;;;;;;3.17;100.00;98534.09;10588267;28;20198;-68
2022/04/05 02:13:39;;;;;;;9.60;6.43;;;;;;;3.09;100.00;98530.78;10586280;28;20203;-67
2022/04/05 02:18:43;;;;;;;11.13;7.60;;;;;;;3.14;100.00;98526.44;10585753;28;20555;-72
2022/04/05 02:23:46;;;;;;;9.97;6.37;;;;;;;3.12;100.00;98525.63;10585209;28;20199;-69
2022/04/05 02:28:51;;;;;;;9.80;6.90;;;;;;;3.20;100.00;98514.41;10585237;28;20632;-69
2022/04/05 02:33:54;;;;;;;9.53;6.73;;;;;;;3.25;100.00;98511.78;10585304;28;20191;-66
2022/04/05 02:38:57;;;;;;;11.13;7.27;;;;;;;3.30;100.00;98510.03;10585945;28;20296;-68
2022/04/05 02:44:02;;;;;;;11.07;7.40;;;;;;;3.36;100.00;98517.66;10584992;28;20205;-70
2022/04/05 02:49:06;;;;;;;9.60;7.33;;;;;;;3.42;100.00;98512.44;10584655;28;20199;-68
2022/04/05 02:54:09;;;;;;;12.20;7.23;;;;;;;3.38;100.00;98509.06;10584673;28;20239;-74
2022/04/05 02:59:14;;;;;;;11.07;7.63;;;;;;;3.43;100.00;98504.72;10584903;28;20233;-72
2022/04/05 03:04:18;;;;;;;10.30;6.77;;;;;;;3.52;100.00;98501.22;10584753;28;20195;-66
2022/04/05 03:09:21;;;;;;;11.50;7.80;;;;;;;3.57;100.00;98511.44;10584672;28;20201;-68
2022/04/05 03:14:27;;;;;;;11.23;7.63;;;;;;;3.68;100.00;98497.59;10584152;28;20191;-67
2022/04/05 03:19:30;;;;;;;11.37;7.90;;;;;;;3.77;100.00;98494.06;10584218;28;20219;-64
2022/04/05 03:24:33;;;;;;;12.23;7.33;;;;;;;3.79;100.00;98482.94;10584087;28;20637;-68
2022/04/05 03:29:38;;;;;;;11.53;7.87;;;;;;;3.90;100.00;98493.88;10583829;28;20632;-63
2022/04/05 03:34:42;;;;;;;10.83;7.50;;;;;;;3.92;100.00;98487.00;10585772;28;20229;-70
2022/04/05 03:39:45;;;;;;;33.77;16.57;;;;;;;4.02;100.00;98492.88;10592948;28;20294;-71
2022/04/05 03:44:50;;;;;;;19.23;14.20;;;;;;;4.08;100.00;98482.50;10591851;28;20183;-69
2022/04/05 03:49:54;;;;;;;12.33;8.30;;;;;;;4.08;100.00;98475.66;10592011;28;20223;-66
2022/04/05 03:54:57;;;;;;;11.40;8.53;;;;;;;4.08;100.00;98470.53;10591213;28;20235;-70
2022/04/05 04:00:02;;;;;;;11.73;8.17;;;;;;;4.14;100.00;98467.03;10591018;28;20229;-71
2022/04/05 04:05:06;;;;;;;15.33;10.33;;;;;;;4.25;100.00;98465.13;10591062;28;20552;-69
2022/04/05 04:10:10;;;;;;;13.67;9.67;;;;;;;4.30;100.00;98474.47;10591191;28;20229;-72
2022/04/05 04:15:15;;;;;;;11.33;9.27;;;;;;;4.31;100.00;98480.47;10590787;28;20274;-73
2022/04/05 04:20:18;;;;;;;12.30;9.07;;;;;;;4.38;100.00;98459.78;10590180;28;20211;-71
2022/04/05 04:25:21;;;;;;;21.70;13.00;;;;;;;4.46;100.00;98467.38;10590240;28;20195;-72
2022/04/05 04:30:26;;;;;;;15.53;9.97;;;;;;;4.44;100.00;98471.69;10589950;28;20210;-72
2022/04/05 04:35:30;;;;;;;12.67;9.43;;;;;;;4.47;100.00;98475.03;10589963;28;20211;-72
2022/04/05 04:40:37;;;;;;;11.53;8.83;;;;;;;4.46;100.00;98483.63;10591516;28;20291;-69
2022/04/05 04:45:42;;;;;;;12.13;8.23;;;;;;;4.58;100.00;98485.16;10589180;28;20194;-72
2022/04/05 04:50:45;;;;;;;11.47;8.00;;;;;;;4.69;100.00;98485.81;10589112;28;20223;-73
2022/04/05 04:55:48;;;;;;;13.17;9.70;;;;;;;4.78;100.00;98495.09;10589163;28;20297;-69
2022/04/05 05:01:13;;;;;;;11.80;8.87;;;;;;;4.83;100.00;98486.44;10588789;28;20219;-70
2022/04/05 05:06:17;;;;;;;11.70;9.00;;;;;;;4.95;100.00;98473.38;10588732;28;20570;-70
2022/04/05 05:11:20;;;;;;;10.67;7.97;;;;;;;5.07;100.00;98480.00;10589696;28;20218;-72
2022/04/05 05:16:25;;;;;;;13.47;8.70;;;;;;;5.11;100.00;98486.81;10588224;28;20194;-73
2022/04/05 05:21:28;;;;;;;10.53;8.33;;;;;;;5.13;100.00;98490.16;10588570;28;20197;-73
2022/04/05 05:26:32;;;;;;;11.83;7.83;;;;;;;5.14;100.00;98479.88;10587728;28;20209;-72
2022/04/05 05:31:37;;;;;;;10.60;7.47;;;;;;;5.20;100.00;98484.88;10587064;28;20219;-71
2022/04/05 05:36:40;;;;;;;11.63;7.17;;;;;;;5.46;100.00;98494.66;10587267;28;20527;-74
2022/04/05 05:41:44;;;;;;;10.30;7.43;;;;;;;5.55;100.00;98487.63;10577669;28;20226;-70
2022/04/05 05:46:48;;;;;;;10.33;6.43;;;;;;;5.63;100.00;98519.19;10544710;28;20294;-72
2022/04/05 05:51:52;;;;;;;12.73;7.53;;;;;;;5.64;100.00;98517.47;10544285;28;20340;-73
2022/04/05 05:57:01;;;;;;;10.30;7.50;;;;;;;5.63;100.00;98520.91;10542282;28;20564;-73
2022/04/05 06:02:07;;;;;;;7.87;5.57;;;;;;;5.57;100.00;98533.91;10540445;28;20268;-73
2022/04/05 06:07:11;;;;;;;8.27;4.87;;;;;;;5.35;100.00;98541.16;10543733;28;20288;-72
2022/04/05 06:12:14;;;;;;;9.07;4.50;;;;;;;5.18;100.00;98566.34;10545052;28;20225;-73
2022/04/05 06:17:19;;;;;;;5.90;3.53;;;;;;;4.85;100.00;98541.22;10543381;28;20675;-72
2022/04/05 06:22:22;;;;;;;6.60;3.87;;;;;;;4.70;100.00;98570.59;10543735;28;20295;-73
2022/04/05 06:27:26;;;;;;;7.43;4.00;;;;;;;4.53;100.00;98561.44;10542971;28;20310;-71
2022/04/05 06:32:31;;;;;;;4.57;2.70;;;;;;;4.45;100.00;98551.25;10541809;28;20310;-70
2022/04/05 06:37:35;;;;;;;7.50;4.33;;;;;;;4.46;100.00;98568.38;10540090;28;20229;-72
2022/04/05 06:42:42;;;;;;;8.43;4.90;;;;;;;4.62;100.00;98561.31;10542784;28;20223;-74
2022/04/05 06:47:48;;;;;;;9.60;4.57;;;;;;;4.76;100.00;98558.50;10539728;28;20219;-68
2022/04/05 06:52:52;;;;;;;35.60;22.87;;;;;;;4.95;100.00;98567.63;10538906;28;20238;-72
2022/04/05 06:57:57;;;;;;;9.33;5.10;;;;;;;5.15;100.00;98560.41;10539076;28;20579;-64
2022/04/05 07:03:01;;;;;;;9.93;6.47;;;;;;;5.33;100.00;98550.63;10538655;28;20215;-63
2022/04/05 07:08:06;;;;;;;13.83;9.27;;;;;;;5.50;100.00;98548.63;10540198;28;20272;-67
2022/04/05 07:13:09;;;;;;;8.70;4.90;;;;;;;5.68;100.00;98547.38;10548727;28;20310;-66
2022/04/05 07:18:14;;;;;;;6.80;4.53;;;;;;;5.80;100.00;98560.88;10547278;28;20364;-72
2022/04/05 07:23:17;;;;;;;7.57;3.93;;;;;;;6.02;100.00;98574.19;10547113;28;20227;-71
2022/04/05 07:28:21;;;;;;;8.40;4.07;;;;;;;6.12;100.00;98555.09;10547018;28;20223;-73
2022/04/05 07:33:26;;;;;;;5.87;3.20;;;;;;;6.31;100.00;98542.66;10546422;28;20828;-72
2022/04/05 07:38:29;;;;;;;37.80;3.17;;;;;;;6.24;100.00;98552.25;10196871;27;10000817;-71
2022/04/05 07:43:33;;;;;;;5.07;2.10;;;;;;;5.96;99.63;98574.31;10557552;28;20222;-70
2022/04/05 07:48:37;;;;;;;5.57;1.97;;;;;;;5.72;100.00;98610.81;10549316;28;20219;-72
2022/04/05 07:53:41;;;;;;;5.87;2.13;;;;;;;5.46;100.00;98608.72;10548767;28;20231;-71
2022/04/05 07:58:45;;;;;;;3.37;1.60;;;;;;;5.39;100.00;98614.84;10549045;28;20223;-67
2022/04/05 08:03:50;;;;;;;7.23;3.27;;;;;;;5.55;100.00;98584.53;10548492;28;20217;-70
2022/04/05 08:08:53;;;;;;;5.47;2.23;;;;;;;5.75;96.93;98611.59;10548666;28;20230;-71
2022/04/05 08:14:01;;;;;;;6.87;2.57;;;;;;;5.98;96.75;98613.75;10550440;28;20676;-70
2022/04/05 08:19:06;;;;;;;4.93;1.90;;;;;;;6.01;91.09;98631.72;10547873;28;20245;-70
2022/04/05 08:24:09;;;;;;;4.27;1.53;;;;;;;6.20;85.21;98642.47;10547259;28;20215;-74
2022/04/05 08:29:13;;;;;;;5.27;1.70;;;;;;;6.26;85.86;98614.03;10547807;28;20555;-70
2022/04/05 08:34:18;;;;;;;8.80;2.20;;;;;;;6.50;87.03;98611.78;10547301;28;20215;-71
2022/04/05 08:39:21;;;;;;;5.63;1.83;;;;;;;6.66;84.37;98623.44;10547588;28;20227;-72
2022/04/05 08:44:26;;;;;;;6.70;1.67;;;;;;;6.89;80.49;98631.50;10549943;28;20364;-71
2022/04/05 08:49:32;;;;;;;5.70;1.53;;;;;;;7.00;80.28;98636.41;10546968;28;20223;-71
2022/04/05 08:54:35;;;;;;;4.53;1.67;;;;;;;7.15;76.56;98646.38;10542837;28;20235;-71
2022/04/05 08:59:39;;;;;;;3.00;1.00;;;;;;;7.22;75.37;98659.97;10545328;28;20231;-74
2022/04/05 09:04:46;;;;;;;6.80;1.50;;;;;;;7.39;73.60;98663.81;10546139;28;20579;-71
2022/04/05 09:10:08;;;;;;;5.80;1.10;;;;;;;7.49;73.92;98659.31;10546303;28;20224;-70
2022/04/05 09:15:24;;;;;;;5.20;1.57;;;;;;;7.63;72.21;98670.09;10549095;28;20744;-72
2022/04/05 09:20:30;;;;;;;4.97;1.07;;;;;;;7.76;67.85;98697.31;10545907;28;20280;-73
2022/04/05 09:25:33;;;;;;;5.10;1.40;;;;;;;7.89;67.02;98675.44;10545362;28;20222;-72
2022/04/05 09:30:37;;;;;;;4.37;1.10;;;;;;;8.28;64.47;98679.59;10545240;28;20223;-74
2022/04/05 09:35:43;;;;;;;4.60;1.73;;;;;;;8.49;63.69;98665.19;10544532;28;20223;-72
2022/04/05 09:40:52;;;;;;;7.10;1.97;;;;;;;8.86;59.91;98681.31;10544780;28;20215;-69
2022/04/05 09:46:06;;;;;;;4.40;1.43;;;;;;;9.48;60.60;98667.25;10546740;28;20551;-72
2022/04/05 09:51:14;;;;;;;4.17;1.30;;;;;;;10.46;57.39;98681.97;10541507;28;20243;-70
2022/04/05 09:56:19;;;;;;;5.67;1.40;;;;;;;10.60;53.53;98674.53;10541394;28;20219;-72
2022/04/05 10:01:25;;;;;;;5.33;1.17;;;;;;;11.28;53.13;98664.94;10540673;28;20641;-72
2022/04/05 10:06:31;;;;;;;4.30;1.30;;;;;;;11.59;49.85;98673.19;10540956;28;20211;-71
2022/04/05 10:11:36;;;;;;;3.77;1.00;;;;;;;11.75;48.19;98688.16;10541005;28;20215;-71
2022/04/05 10:16:40;;;;;;;4.17;1.07;;;;;;;11.91;47.30;98718.63;10541637;28;20211;-69
2022/04/05 10:21:47;;;;;;;5.60;1.30;;;;;;;11.94;49.75;98686.47;10540222;28;20226;-73
2022/04/05 10:26:53;;;;;;;3.67;1.30;;;;;;;11.46;48.19;98694.50;10539978;28;20215;-68
2022/04/05 10:32:02;;;;;;;4.23;1.20;;;;;;;10.75;50.67;98712.84;10539725;28;20564;-70
2022/04/05 10:37:10;;;;;;;4.63;1.27;;;;;;;10.88;50.01;98728.81;10538957;28;20225;-71
2022/04/05 10:42:20;;;;;;;5.13;1.40;;;;;;;10.79;51.67;98722.22;10540635;28;20237;-69
2022/04/05 10:47:24;;;;;;;3.93;1.00;;;;;;;11.11;50.26;98719.25;10539223;28;20709;-69
2022/04/05 10:52:49;;;;;;;2.43;0.90;;;;;;;10.52;51.01;98740.56;10538392;28;20231;-73
2022/04/05 10:58:09;;;;;;;12.03;2.83;;;;;;;11.20;49.19;98752.66;10539151;28;20664;-74
2022/04/05 11:03:12;;;;;;;7.90;1.27;;;;;;;12.08;46.24;98741.34;10538937;28;20678;-71
2022/04/05 11:08:23;;;;;;;7.43;1.17;;;;;;;11.68;47.12;98775.06;10538554;28;20305;-72
2022/04/05 11:13:46;;;;;;;4.33;1.00;;;;;;;12.38;45.32;98756.50;10542309;28;20687;-71
2022/04/05 11:18:57;;;;;;;5.67;1.10;;;;;;;11.28;47.63;98774.00;10538327;28;20230;-71
2022/04/05 11:24:02;;;;;;;7.50;1.20;;;;;;;10.42;47.72;98790.16;10538218;28;20215;-74
2022/04/05 11:29:20;;;;;;;4.70;1.27;;;;;;;9.99;49.83;98796.81;10538586;28;20254;-76
2022/04/05 11:34:34;;;;;;;5.13;1.00;;;;;;;9.93;49.74;98809.97;10537667;28;20230;-74
2022/04/05 11:39:42;;;;;;;3.83;1.00;;;;;;;10.04;48.30;98805.28;10539243;28;20220;-72
2022/04/05 11:44:49;;;;;;;5.90;1.07;;;;;;;11.54;45.75;98812.78;10538901;28;20692;-74
2022/04/05 11:49:53;;;;;;;7.27;2.03;;;;;;;12.23;42.45;98790.13;10538159;28;20572;-74
2022/04/05 12:00:19;;;;;;;7.77;1.20;;;;;;;13.67;41.67;98793.13;10548991;28;20223;-73
2022/04/05 12:05:41;;;;;;;5.97;1.07;;;;;;;13.52;41.02;98810.34;10548685;28;20215;-72
2022/04/05 12:10:46;;;;;;;7.00;1.63;;;;;;;13.56;41.35;98808.47;10549537;28;20230;-75
2022/04/05 12:15:58;;;;;;;5.90;1.30;;;;;;;12.95;42.49;98820.78;10548154;28;20294;-75
2022/04/05 12:21:04;;;;;;;5.63;1.53;;;;;;;13.82;41.76;98806.28;10548380;28;20238;-73
2022/04/05 12:26:14;;;;;;;7.57;1.37;;;;;;;12.36;43.79;98823.34;10547502;28;20649;-76
2022/04/05 12:31:19;;;;;;;5.90;1.70;;;;;;;11.71;43.47;98808.72;10547571;28;20223;-73
2022/04/05 12:36:24;;;;;;;8.30;1.70;;;;;;;11.21;44.44;98821.88;10547367;28;20295;-71
2022/04/05 12:41:28;;;;;;;6.33;1.30;;;;;;;12.99;43.37;98827.56;10549237;28;20227;-74
2022/04/05 12:46:38;;;;;;;3.07;1.03;;;;;;;16.71;36.33;98805.41;10547308;28;20291;-74
2022/04/05 12:51:42;;;;;;;8.07;1.27;;;;;;;18.41;34.62;98804.19;10547429;28;20249;-73
2022/04/05 12:56:46;;;;;;;7.17;1.40;;;;;;;14.51;38.23;98832.50;10546738;28;20220;-73
2022/04/05 13:01:54;;;;;;;5.97;1.40;;;;;;;12.36;40.23;98836.38;10547197;28;20672;-73
2022/04/05 13:07:00;;;;;;;7.47;1.43;;;;;;;11.31;43.49;98861.34;10549233;28;20231;-73
2022/04/05 13:12:09;;;;;;;7.13;1.47;;;;;;;10.94;44.43;98867.00;10546118;28;20211;-75
2022/04/05 13:17:14;;;;;;;8.30;1.40;;;;;;;11.75;42.77;98876.16;10545670;28;20287;-72
2022/04/05 13:22:17;;;;;;;8.23;2.80;;;;;;;11.25;44.28;98871.97;10545991;28;20223;-71
2022/04/05 13:27:23;;;;;;;9.70;1.30;;;;;;;10.65;45.27;98880.16;10545226;28;20211;-75
2022/04/05 13:32:27;;;;;;;8.07;1.87;;;;;;;10.66;45.75;98889.66;10545527;28;20668;-70
2022/04/05 13:37:31;;;;;;;8.80;2.27;;;;;;;10.18;47.26;98889.50;10191641;27;9999801;-76
2022/04/05 13:42:35;;;;;;;8.73;1.70;;;;;;;10.53;45.62;98888.34;10541315;28;20235;-72
2022/04/05 13:47:40;;;;;;;3.93;0.90;;;;;;;10.19;45.60;98916.28;10541489;28;20551;-71
2022/04/05 13:52:44;;;;;;;14.10;1.83;;;;;;;10.73;44.51;98890.28;10540989;28;20245;-72
2022/04/05 13:57:49;;;;;;;8.93;1.50;;;;;;;11.03;44.58;98903.03;10541007;28;20229;-73
2022/04/05 14:02:54;;;;;;;10.50;1.40;;;;;;;10.69;43.66;98906.84;10541914;28;20219;-73
2022/04/05 14:07:58;;;;;;;6.37;1.50;;;;;;;10.88;42.90;98893.19;10540253;28;20614;-74
2022/04/05 14:13:03;;;;;;;7.20;1.20;;;;;;;10.90;43.33;98903.53;10540595;28;20348;-71
2022/04/05 14:18:06;;;;;;;10.97;1.67;;;;;;;10.61;42.83;98912.31;10539727;28;20301;-72
2022/04/05 14:23:10;;;;;;;10.63;1.60;;;;;;;10.81;43.34;98932.38;10540003;28;20231;-73
2022/04/05 14:28:15;;;;;;;10.37;1.80;;;;;;;10.39;43.28;98925.13;10544250;28;20223;-74
2022/04/05 14:33:18;;;;;;;11.20;1.97;;;;;;;11.19;43.37;98908.53;10540390;28;20211;-71
2022/04/05 14:38:22;;;;;;;13.63;2.03;;;;;;;11.67;42.31;98911.09;10546824;28;20230;-72
2022/04/05 14:43:27;;;;;;;10.07;1.43;;;;;;;11.96;41.00;98913.47;10539740;28;20292;-71
2022/04/05 14:48:31;;;;;;;9.43;1.77;;;;;;;12.22;41.33;98918.47;10538931;28;20573;-73
2022/04/05 14:53:35;;;;;;;12.00;1.50;;;;;;;12.00;41.33;98922.81;10539102;28;20265;-72
2022/04/05 14:58:39;;;;;;;12.20;2.27;;;;;;;11.80;42.31;98936.59;10542113;28;20290;-74
2022/04/05 15:03:43;;;;;;;8.47;1.43;;;;;;;11.19;42.93;98943.16;10539192;28;20303;-73
2022/04/05 15:08:46;;;;;;;12.37;2.00;;;;;;;10.81;43.62;98953.13;10539198;28;20212;-73
2022/04/05 15:13:52;;;;;;;11.53;3.00;;;;;;;10.66;43.43;98946.72;10496924;28;20357;-73
2022/04/05 15:19:10;;;;;;;16.17;5.83;;;;;;;10.59;43.67;98953.00;10496910;28;20219;-70
2022/04/05 15:24:13;;;;;;;8.37;3.00;;;;;;;10.52;43.92;98950.66;10500110;28;20306;-69
2022/04/05 15:29:18;;;;;;;8.60;1.93;;;;;;;10.76;45.13;98963.69;10498007;28;20267;-71
2022/04/05 15:34:21;;;;;;;10.53;1.80;;;;;;;10.94;45.14;98964.81;10505122;28;20561;-74
2022/04/05 15:39:41;;;;;;;11.50;1.80;;;;;;;10.69;45.16;98971.72;10516032;28;20210;-74
2022/04/05 15:44:48;;;;;;;6.50;2.00;;;;;;;10.61;45.52;98981.50;10547054;28;20243;-71
2022/04/05 15:49:51;;;;;;;7.60;1.60;;;;;;;10.30;46.60;98982.47;10546605;28;20212;-74
2022/04/05 15:54:56;;;;;;;7.33;1.30;;;;;;;9.95;45.67;98987.84;10550235;28;20244;-74
2022/04/05 16:00:01;;;;;;;9.70;2.17;;;;;;;9.84;45.33;98997.66;10545662;28;20219;-74
2022/04/05 16:05:06;;;;;;;13.33;1.80;;;;;;;9.51;45.48;98996.03;10546209;28;20225;-73
2022/04/05 16:10:10;;;;;;;15.77;1.87;;;;;;;9.43;45.83;98997.13;10545809;28;20233;-72
2022/04/05 16:15:15;;;;;;;6.53;2.43;;;;;;;9.42;47.33;99021.34;10545955;28;20223;-70
2022/04/05 16:20:18;;;;;;;7.50;1.90;;;;;;;9.33;48.52;99025.88;10546789;28;20250;-71
2022/04/05 16:25:21;;;;;;;10.03;1.70;;;;;;;9.18;48.69;99030.59;10544642;28;20211;-69
2022/04/05 16:30:26;;;;;;;14.50;3.57;;;;;;;9.19;48.93;99027.97;10544474;28;20258;-73
2022/04/05 16:35:29;;;;;;;7.73;2.97;;;;;;;9.15;49.66;99035.84;10552005;28;20600;-72
2022/04/05 16:40:33;;;;;;;11.13;2.17;;;;;;;8.99;49.50;99048.31;10585718;28;20237;-75
2022/04/05 16:45:37;;;;;;;4.33;1.43;;;;;;;8.96;49.23;99045.81;10586560;28;20374;-74
2022/04/05 16:50:41;;;;;;;8.60;2.20;;;;;;;8.91;49.72;99057.16;10567005;28;20249;-73
2022/04/05 16:55:48;;;;;;;11.33;1.93;;;;;;;8.80;49.63;99057.41;10542993;28;20255;-75
2022/04/05 17:00:52;;;;;;;12.50;2.20;;;;;;;8.67;49.67;99058.59;10543544;28;20521;-70
2022/04/05 17:05:57;;;;;;;10.43;1.90;;;;;;;8.61;50.44;99068.25;10543170;28;20226;-71
2022/04/05 17:11:00;;;;;;;22.00;7.03;;;;;;;8.52;50.58;99071.03;10542879;28;20310;-71
2022/04/05 17:16:06;;;;;;;11.20;1.77;;;;;;;8.43;50.13;99068.66;10543149;28;20212;-75
2022/04/05 17:21:10;;;;;;;11.90;1.73;;;;;;;8.38;50.21;99076.50;10545301;28;20231;-73
2022/04/05 17:26:13;;;;;;;97.33;41.97;;;;;;;8.35;50.31;99076.59;10576507;27;20738;-73
2022/04/05 17:31:18;;;;;;;12.37;2.90;;;;;;;8.27;50.83;99088.81;10542262;28;20217;-73
2022/04/05 17:36:22;;;;;;;14.63;2.07;;;;;;;8.17;51.15;99097.59;10556902;28;20218;-72
2022/04/05 17:41:25;;;;;;;12.20;2.90;;;;;;;8.11;51.79;99090.81;10584082;28;20229;-73
2022/04/05 17:46:30;;;;;;;8.13;2.20;;;;;;;8.06;51.95;99107.28;10584798;28;20245;-72
2022/04/05 17:51:33;;;;;;;10.53;2.47;;;;;;;8.01;52.36;99114.28;10583851;28;20567;-72
2022/04/05 17:56:37;;;;;;;5.30;1.40;;;;;;;7.92;52.62;99124.84;10582436;28;20617;-72
2022/04/05 18:01:42;;;;;;;11.50;2.70;;;;;;;7.82;53.63;99131.88;10582998;28;20686;-71
2022/04/05 18:06:46;;;;;;;7.77;1.57;;;;;;;7.84;54.57;99130.13;10583139;27;20195;-72
2022/04/05 18:11:49;;;;;;;9.13;2.20;;;;;;;7.78;54.35;99131.97;10583026;28;20195;-75
2022/04/05 18:16:54;;;;;;;7.10;2.10;;;;;;;7.70;54.84;99142.44;10585722;28;20548;-73
2022/04/05 18:21:59;;;;;;;9.83;1.90;;;;;;;7.60;55.67;99148.66;10582787;28;20214;-71
2022/04/05 18:27:05;;;;;;;8.67;2.57;;;;;;;7.51;57.58;99156.56;10582354;28;20193;-73
2022/04/05 18:32:10;;;;;;;12.37;3.43;;;;;;;7.37;59.98;99170.59;10582429;28;20269;-74
2022/04/05 18:37:13;;;;;;;9.83;2.90;;;;;;;7.07;61.60;99171.06;10560771;28;20266;-72
2022/04/05 18:42:17;;;;;;;9.70;3.57;;;;;;;6.95;63.54;99182.41;10542733;28;20223;-73
2022/04/05 18:47:22;;;;;;;11.73;3.90;;;;;;;6.84;63.43;99192.03;10543633;28;20512;-72
2022/04/05 18:52:25;;;;;;;10.67;4.33;;;;;;;6.72;65.42;99193.06;10543307;28;20219;-72
2022/04/05 18:57:29;;;;;;;14.93;4.50;;;;;;;6.46;68.43;99196.81;10542359;28;20663;-73
2022/04/05 19:02:33;;;;;;;10.57;4.50;;;;;;;6.39;68.68;99208.94;10541519;28;20599;-73
2022/04/05 19:07:40;;;;;;;12.80;4.20;;;;;;;6.32;68.14;99209.00;10540613;28;20209;-72
2022/04/05 19:12:43;;;;;;;10.03;4.30;;;;;;;6.24;68.61;99209.13;10542327;28;20676;-71
2022/04/05 19:17:48;;;;;;;9.23;4.27;;;;;;;5.95;70.73;99210.31;10540504;28;20202;-74
2022/04/05 19:22:52;;;;;;;16.70;5.50;;;;;;;5.93;72.89;99218.03;10538570;28;20645;-64
2022/04/05 19:27:55;;;;;;;13.80;4.07;;;;;;;5.71;74.70;99217.34;10538513;28;20229;-64
2022/04/05 19:33:00;;;;;;;14.37;4.40;;;;;;;5.72;75.75;99213.94;10538120;28;20230;-65
2022/04/05 19:38:03;;;;;;;11.40;4.37;;;;;;;5.52;76.59;99215.81;10567708;28;20675;-63
2022/04/05 19:43:07;;;;;;;12.07;4.63;;;;;;;5.51;77.65;99218.38;10580365;28;20257;-63
2022/04/05 19:48:11;;;;;;;14.13;5.23;;;;;;;5.48;77.69;99201.28;10547883;28;20529;-63
2022/04/05 19:53:18;;;;;;;14.43;4.77;;;;;;;5.51;79.44;99197.81;10537720;28;20318;-64
2022/04/05 19:58:22;;;;;;;13.50;5.80;;;;;;;5.49;79.63;99196.97;10537910;28;20230;-63
2022/04/05 20:03:27;;;;;;;12.60;5.90;;;;;;;5.37;79.00;99195.34;10537778;28;20223;-63
2022/04/05 20:08:30;;;;;;;14.17;6.10;;;;;;;5.40;79.77;99181.63;10537970;28;20219;-65
2022/04/05 20:13:34;;;;;;;17.73;6.97;;;;;;;5.41;79.27;99186.75;10537567;28;20533;-62
2022/04/05 20:18:43;;;;;;;14.43;6.27;;;;;;;5.59;78.88;99171.13;10542620;28;20960;-69
2022/04/05 20:23:47;;;;;;;16.30;6.67;;;;;;;5.78;77.96;99161.53;10544887;28;20237;-75
2022/04/05 20:28:52;;;;;;;19.83;6.00;;;;;;;5.65;76.74;99152.22;10544764;28;20302;-66
2022/04/05 20:33:57;;;;;;;14.77;7.00;;;;;;;5.65;76.22;99149.63;10544709;28;20218;-64
2022/04/05 20:39:00;;;;;;;15.60;6.20;;;;;;;5.63;78.48;99157.38;10581702;28;20214;-64
2022/04/05 20:44:04;;;;;;;18.97;7.03;;;;;;;5.61;78.18;99135.94;10586248;28;20229;-64
2022/04/05 20:49:09;;;;;;;16.70;5.60;;;;;;;5.48;75.77;99133.50;10586686;28;20237;-63
2022/04/05 20:54:12;;;;;;;13.13;6.27;;;;;;;5.45;76.28;99138.69;10585574;28;20554;-61
2022/04/05 20:59:16;;;;;;;13.90;6.10;;;;;;;5.60;77.79;99147.13;10585979;28;20598;-70
2022/04/05 21:04:20;;;;;;;21.50;6.70;;;;;;;5.64;76.23;99128.19;10586723;28;20215;-66
2022/04/05 21:09:24;;;;;;;18.17;6.43;;;;;;;5.66;75.74;99125.63;10585432;28;20263;-67
2022/04/05 21:14:28;;;;;;;13.43;5.53;;;;;;;5.71;72.62;99124.69;10585511;28;20218;-68
2022/04/05 21:19:34;;;;;;;12.37;5.50;;;;;;;5.88;68.79;99121.13;10585066;28;20231;-64
2022/04/05 21:24:37;;;;;;;12.70;4.37;;;;;;;5.98;66.97;99113.28;10584708;28;20223;-69
2022/04/05 21:29:41;;;;;;;14.33;5.43;;;;;;;6.07;68.17;99110.59;10585032;28;20245;-67
2022/04/05 21:34:46;;;;;;;11.53;4.30;;;;;;;6.08;65.59;99089.09;10583772;28;20229;-66
2022/04/05 21:39:49;;;;;;;14.27;3.40;;;;;;;6.13;63.97;99084.75;10542009;28;20602;-68
2022/04/05 21:44:53;;;;;;;15.90;3.60;;;;;;;6.23;63.02;99095.81;10542105;28;20241;-67
2022/04/05 21:49:59;;;;;;;10.47;2.93;;;;;;;6.27;62.96;99107.75;10541523;28;20211;-68
2022/04/05 21:55:03;;;;;;;10.83;3.10;;;;;;;6.24;63.21;99113.81;10541435;28;20551;-67
2022/04/05 22:00:10;;;;;;;8.10;2.60;;;;;;;6.38;63.19;99124.78;10543457;28;20711;-68
2022/04/05 22:05:14;;;;;;;8.70;3.00;;;;;;;6.38;63.99;99101.59;10542345;28;20245;-67
2022/04/05 22:10:21;;;;;;;13.37;3.97;;;;;;;6.42;64.08;99098.09;10541199;28;20691;-68
2022/04/05 22:15:24;;;;;;;8.23;3.33;;;;;;;6.42;64.42;99092.94;10541440;28;20215;-68
2022/04/05 22:20:29;;;;;;;7.73;3.03;;;;;;;6.38;65.21;99088.72;10541422;28;20220;-67
2022/04/05 22:25:32;;;;;;;9.23;3.33;;;;;;;6.44;65.76;99086.03;10541543;28;20249;-67
2022/04/05 22:30:36;;;;;;;9.70;4.27;;;;;;;6.45;66.50;99086.91;10541069;28;20268;-65
2022/04/05 22:35:41;;;;;;;10.63;3.93;;;;;;;6.39;67.23;99094.69;10549386;28;20658;-69
2022/04/05 22:40:44;;;;;;;9.70;3.47;;;;;;;6.44;67.77;99096.34;10582184;28;20356;-67
2022/04/05 22:45:47;;;;;;;10.30;4.13;;;;;;;6.51;68.29;99089.38;10582247;28;20738;-66
2022/04/05 22:50:52;;;;;;;12.90;5.50;;;;;;;6.49;68.96;99096.31;10581764;28;20217;-66
2022/04/05 22:55:55;;;;;;;13.57;5.47;;;;;;;6.44;70.40;99087.75;10583692;28;20225;-67
2022/04/05 23:00:59;;;;;;;13.77;4.17;;;;;;;6.42;72.06;99076.63;10581895;28;20301;-66
2022/04/05 23:06:03;;;;;;;11.80;3.70;;;;;;;6.29;77.10;99075.09;10584011;28;20218;-66
2022/04/05 23:11:06;;;;;;;9.60;3.93;;;;;;;6.27;80.14;99081.97;10584566;28;20220;-67
2022/04/05 23:16:10;;;;;;;12.03;4.13;;;;;;;6.24;82.42;99082.03;10584507;28;20230;-66
2022/04/05 23:21:15;;;;;;;10.20;4.60;;;;;;;6.20;85.36;99070.06;10585433;28;20290;-66
2022/04/05 23:26:18;;;;;;;10.33;4.17;;;;;;;6.19;86.24;99066.66;10584087;28;20671;-67
2022/04/05 23:31:22;;;;;;;9.23;4.00;;;;;;;6.07;89.85;99066.81;10584359;28;20222;-68
2022/04/05 23:36:27;;;;;;;14.47;4.47;;;;;;;6.03;91.79;99060.00;10584331;28;20218;-69
2022/04/05 23:41:30;;;;;;;10.57;3.93;;;;;;;6.08;95.05;99054.75;10584559;28;20237;-65